createdAt,value
2018-10-16T00:02:05.982Z,96185.4
2018-10-16T00:07:05.096Z,96184.5
2018-10-16T00:12:02.199Z,96032.8
2018-10-16T00:16:59.159Z,96076.6
2018-10-16T00:21:56.271Z,96191.9
2018-10-16T00:26:54.428Z,96192.2
2018-10-16T00:31:51.260Z,96197.3
2018-10-16T00:36:48.263Z,96194.6
2018-10-16T00:41:45.259Z,96193.3
2018-10-16T00:46:42.344Z,96193.1
2018-10-16T00:51:38.868Z,96097.8
2018-10-16T00:56:36.101Z,96206.5
2018-10-16T01:01:33.388Z,96198.9
2018-10-16T01:06:30.993Z,96083.6
2018-10-16T01:11:27.866Z,96191.9
2018-10-16T01:16:24.960Z,96080.9
2018-10-16T01:21:22.547Z,96069.4
2018-10-16T01:26:20.358Z,96187.9
2018-10-16T01:31:18.510Z,96183.8
2018-10-16T01:36:15.062Z,96179.3
2018-10-16T01:41:12.165Z,96173.2
2018-10-16T01:46:09.283Z,96282.8
2018-10-16T01:51:06.722Z,96166.3
2018-10-16T01:56:04.055Z,96067.3
2018-10-16T02:01:01.117Z,96060.3
2018-10-16T02:05:59.030Z,96174.6
2018-10-16T02:10:55.991Z,96184.3
2018-10-16T02:15:52.933Z,96188.9
2018-10-16T02:20:49.651Z,96186.4
2018-10-16T02:25:47.185Z,96181.6
2018-10-16T02:30:44.768Z,96078.6
2018-10-16T02:35:42.948Z,96074.9
2018-10-16T02:40:39.580Z,96173.4
2018-10-16T02:45:36.888Z,96178.4
2018-10-16T02:50:33.818Z,96183.8
2018-10-16T02:55:31.527Z,96105.1
2018-10-16T03:00:28.573Z,96072.6
2018-10-16T03:05:25.928Z,96185.3
2018-10-16T03:10:23.157Z,96180.5
2018-10-16T03:15:21.087Z,96146.1
2018-10-16T03:20:18.751Z,96187.2
2018-10-16T03:25:16.081Z,96072.2
2018-10-16T03:30:13.994Z,96184
2018-10-16T03:35:10.709Z,96072.7
2018-10-16T03:40:07.535Z,96178.5
2018-10-16T03:45:04.743Z,96094
2018-10-16T03:50:01.676Z,96082.4
2018-10-16T03:54:59.483Z,96068
2018-10-16T03:59:57.833Z,96186.2
2018-10-16T04:04:54.730Z,96189.4
2018-10-16T04:09:52.351Z,96188.9
2018-10-16T04:14:49.811Z,96084.2
2018-10-16T04:19:47.991Z,96157.5
2018-10-16T04:24:49.154Z,96187
2018-10-16T04:29:45.622Z,96187
2018-10-16T04:34:42.230Z,96183.1
2018-10-16T04:39:39.865Z,96069.8
2018-10-16T04:44:37.012Z,96184.6
2018-10-16T04:49:34.000Z,96189.1
2018-10-16T04:54:31.222Z,96181.6
2018-10-16T04:59:28.510Z,96227.9
2018-10-16T05:04:25.526Z,96082.9
2018-10-16T05:09:22.307Z,96300.7
2018-10-16T05:14:19.205Z,96201.4
2018-10-16T05:19:16.623Z,96206
2018-10-16T05:24:13.879Z,96076.7
2018-10-16T05:29:10.627Z,96279.6
2018-10-16T05:34:08.169Z,96334.2
2018-10-16T05:39:04.927Z,96086.1
2018-10-16T05:44:01.931Z,96327.3
2018-10-16T05:48:59.063Z,96224.8
2018-10-16T05:53:56.110Z,96095.1
2018-10-16T05:58:53.374Z,96160.2
2018-10-16T06:03:50.390Z,96107.3
2018-10-16T06:08:47.678Z,96137.9
2018-10-16T06:13:44.836Z,96108.8
2018-10-16T06:18:42.206Z,96189.6
2018-10-16T06:23:39.173Z,96116.2
2018-10-16T06:28:36.454Z,96222.9
2018-10-16T06:33:33.676Z,96110.2
2018-10-16T06:38:30.791Z,96223.2
2018-10-16T06:43:28.698Z,96230.7
2018-10-16T06:48:26.325Z,96200
2018-10-16T06:53:23.480Z,96239.7
2018-10-16T06:58:20.792Z,96226.6
2018-10-16T07:03:17.976Z,96238.9
2018-10-16T07:08:18.915Z,96043.3
2018-10-16T07:13:15.156Z,96239.9
2018-10-16T07:18:12.394Z,96235.5
2018-10-16T07:23:09.934Z,96234.5
2018-10-16T07:28:07.034Z,96233.8
2018-10-16T07:33:04.028Z,96184
2018-10-16T07:38:01.913Z,96124.4
2018-10-16T07:42:58.573Z,96229.1
2018-10-16T07:47:55.840Z,96191.5
2018-10-16T07:52:52.950Z,96226
2018-10-16T07:57:50.857Z,96120.2
2018-10-16T08:02:47.619Z,96107
2018-10-16T08:07:45.498Z,96109.7
2018-10-16T08:12:41.503Z,96100.8
2018-10-16T08:17:39.614Z,96206.9
2018-10-16T08:22:36.185Z,96207.6
2018-10-16T08:27:32.768Z,96211.6
2018-10-16T08:32:30.472Z,96101.7
2018-10-16T08:37:27.484Z,96208.4
2018-10-16T08:42:25.554Z,96207.3
2018-10-16T08:47:22.774Z,96201.7
2018-10-16T08:52:20.922Z,96196.4
2018-10-16T08:57:17.903Z,96186.4
2018-10-16T09:02:16.734Z,96192
2018-10-16T09:07:14.218Z,96189.6
2018-10-16T09:12:11.658Z,96078.3
2018-10-16T09:17:08.923Z,96184.3
2018-10-16T09:22:10.258Z,96048.4
2018-10-16T09:27:07.141Z,96175.9
2018-10-16T09:32:05.875Z,96172.1
2018-10-16T09:37:04.249Z,96166
2018-10-16T09:42:00.776Z,96061.1
2018-10-16T09:46:58.383Z,96155.6
2018-10-16T09:51:56.274Z,96147.8
2018-10-16T09:56:54.033Z,96031.7
2018-10-16T10:01:50.878Z,96135
2018-10-16T10:06:48.127Z,96262.8
2018-10-16T10:11:45.931Z,96114.7
2018-10-16T10:16:44.166Z,96114.2
2018-10-16T10:21:42.628Z,96111.1
2018-10-16T10:26:40.826Z,96002.9
2018-10-16T10:31:37.823Z,95996.8
2018-10-16T10:36:35.249Z,95987.2
2018-10-16T10:41:33.452Z,95949.5
2018-10-16T10:46:30.410Z,95998.1
2018-10-16T10:51:27.805Z,95982.6
2018-10-16T11:01:22.266Z,95910.9
2018-10-16T11:06:19.912Z,96065.6
2018-10-16T11:11:16.816Z,95964.7
2018-10-16T11:16:13.905Z,95960.5
2018-10-16T11:21:11.869Z,96053.6
2018-10-16T11:26:09.745Z,95948.6
2018-10-16T11:31:07.994Z,95946.5
2018-10-16T11:36:03.491Z,96059.9
2018-10-16T11:41:01.401Z,95955.1
2018-10-16T11:45:59.041Z,96117.9
2018-10-16T11:50:57.142Z,96041.6
2018-10-16T11:55:54.695Z,95928.9
2018-10-16T12:00:51.866Z,95937.4
2018-10-16T12:05:49.561Z,95933.9
2018-10-16T12:10:47.461Z,96105.5
2018-10-16T12:15:44.374Z,95920
2018-10-16T12:20:42.049Z,95930.3
2018-10-16T12:25:39.897Z,96006.2
2018-10-16T12:30:37.379Z,96007
2018-10-16T12:35:34.474Z,95920.9
2018-10-16T12:40:31.635Z,95971.7
2018-10-16T12:45:28.602Z,95913.5
2018-10-16T12:50:26.869Z,96001.6
2018-10-16T12:55:24.010Z,95909.2
2018-10-16T13:00:21.731Z,95904.7
2018-10-16T13:05:18.475Z,95906
2018-10-16T13:10:16.296Z,95995
2018-10-16T13:15:13.224Z,95900.7
2018-10-16T13:20:10.609Z,96010
2018-10-16T13:25:07.595Z,95900.6
2018-10-16T13:30:05.025Z,95898.8
2018-10-16T13:35:02.427Z,95890.8
2018-10-16T13:40:00.718Z,95899.3
2018-10-16T13:44:57.481Z,95988.9
2018-10-16T13:49:59.699Z,95998.5
2018-10-16T13:54:55.661Z,95898.7
2018-10-16T13:59:54.477Z,95990
2018-10-16T14:04:52.613Z,95988.2
2018-10-16T14:09:49.873Z,95989
2018-10-16T14:14:48.092Z,95993.5
2018-10-16T14:19:46.331Z,95895.8
2018-10-16T14:24:43.443Z,95998.4
2018-10-16T14:29:42.049Z,95997.2
2018-10-16T14:34:38.950Z,95897.8
2018-10-16T14:39:36.051Z,95898.8
2018-10-16T14:44:33.818Z,95998.8
2018-10-16T14:49:31.556Z,96001
2018-10-16T14:54:28.051Z,95913.1
2018-10-16T14:59:25.758Z,96008.1
2018-10-16T15:04:22.757Z,95912
2018-10-16T15:09:19.938Z,95907.5
2018-10-16T15:14:17.201Z,95925
2018-10-16T15:19:14.761Z,95836.1
2018-10-16T15:24:11.729Z,95944.9
2018-10-16T15:29:08.263Z,96040.4
2018-10-16T15:34:05.518Z,95941.2
2018-10-16T15:39:02.495Z,95914.4
2018-10-16T15:44:00.029Z,95959.3
2018-10-16T15:48:56.803Z,96071.4
2018-10-16T15:53:54.054Z,95978.2
2018-10-16T15:58:51.377Z,95979.7
2018-10-16T16:03:48.334Z,95982
2018-10-16T16:08:45.509Z,96034.2
2018-10-16T16:13:42.711Z,95987.8
2018-10-16T16:18:40.074Z,95994.3
2018-10-16T16:23:36.933Z,95993.7
2018-10-16T16:28:33.681Z,96003.3
2018-10-16T16:33:31.054Z,95994.1
2018-10-16T16:38:28.146Z,96005.4
2018-10-16T16:43:25.752Z,96098
2018-10-16T16:48:22.949Z,96004.9
2018-10-16T16:53:20.288Z,95963.1
2018-10-16T16:58:17.464Z,96028.7
2018-10-16T17:03:14.437Z,96011.8
2018-10-16T17:08:11.936Z,96105.8
2018-10-16T17:13:10.261Z,96006.6
2018-10-16T17:18:07.221Z,96127.1
2018-10-16T17:23:04.272Z,96111.1
2018-10-16T17:28:02.614Z,96016.5
2018-10-16T17:33:00.478Z,96005.2
2018-10-16T17:37:57.864Z,96111.2
2018-10-16T17:42:55.326Z,96111.8
2018-10-16T17:47:53.601Z,96015.6
2018-10-16T17:52:50.322Z,96108.1
2018-10-16T17:57:47.533Z,96115.5
2018-10-16T18:02:44.580Z,96019.6
2018-10-16T18:07:41.801Z,95918.6
2018-10-16T18:12:38.833Z,96091.7
2018-10-16T18:17:35.662Z,96132.3
2018-10-16T18:22:33.041Z,96132.6
2018-10-16T18:27:30.073Z,96142.8
2018-10-16T18:32:27.296Z,96143.2
2018-10-16T18:37:25.385Z,95658.6
2018-10-16T18:42:22.685Z,96154.1
2018-10-16T18:47:19.754Z,96153.3
2018-10-16T18:52:16.695Z,96156.5
2018-10-16T18:57:14.455Z,96153.7
2018-10-16T19:02:11.384Z,96163.5
2018-10-16T19:07:08.390Z,96171
2018-10-16T19:12:05.520Z,96169.3
2018-10-16T19:17:02.262Z,96161.9
2018-10-16T19:21:59.373Z,96157.7
2018-10-16T19:26:57.592Z,96164
2018-10-16T19:31:54.425Z,96169.8
2018-10-16T19:36:51.933Z,96053.8
2018-10-16T19:41:49.559Z,96059.5
2018-10-16T19:46:46.604Z,96168.8
2018-10-16T19:51:43.415Z,96174
2018-10-16T19:56:40.832Z,96169
2018-10-16T20:01:37.673Z,96171.2
2018-10-16T20:06:34.376Z,96073.7
2018-10-16T20:11:31.338Z,96166.1
2018-10-16T20:16:28.496Z,96169.3
2018-10-16T20:21:27.550Z,96178
2018-10-16T20:26:24.308Z,96174.8
2018-10-16T20:31:22.561Z,96170.2
2018-10-16T20:36:19.503Z,96165.5
2018-10-16T20:41:16.531Z,96065.3
2018-10-16T20:46:13.730Z,96170.2
2018-10-16T20:51:11.257Z,96058
2018-10-16T20:56:08.430Z,96016.1
2018-10-16T21:01:05.463Z,96060.6
2018-10-16T21:06:02.515Z,96159.2
2018-10-16T21:10:59.355Z,96162.7
2018-10-16T21:15:56.300Z,96158.5
2018-10-16T21:20:53.457Z,96162.1
2018-10-16T21:25:50.643Z,96125.8
2018-10-16T21:30:47.496Z,96160.2
2018-10-16T21:35:44.708Z,96001.5
2018-10-16T21:40:41.637Z,96158.5
2018-10-16T21:45:38.886Z,96046
2018-10-16T21:50:35.799Z,96152.9
2018-10-16T21:55:33.482Z,96155.2
2018-10-16T22:00:31.108Z,96209.6
2018-10-16T22:05:28.687Z,96158.3
2018-10-16T22:10:25.862Z,96037.6
2018-10-16T22:15:22.855Z,96136.6
2018-10-16T22:20:19.897Z,96134.5
2018-10-16T22:25:17.072Z,95975.3
2018-10-16T22:30:14.078Z,96134
2018-10-16T22:35:10.670Z,96136.9
2018-10-16T22:40:08.643Z,96136.3
2018-10-16T22:45:05.399Z,96138.4
2018-10-16T22:50:02.965Z,96030.3
2018-10-16T22:54:59.924Z,96130
2018-10-16T22:59:57.041Z,96025.8
2018-10-16T23:04:53.987Z,96130.8
2018-10-16T23:09:50.797Z,96126.5
2018-10-16T23:14:47.964Z,96130
2018-10-16T23:19:45.064Z,96037
2018-10-16T23:24:42.374Z,96024.1
2018-10-16T23:29:39.426Z,96130.3
2018-10-16T23:34:36.186Z,96128.2
2018-10-16T23:39:33.235Z,96131.3
2018-10-16T23:44:30.343Z,96036.6
2018-10-16T23:49:28.704Z,96125.1
2018-10-16T23:54:26.015Z,96130.6
2018-10-16T23:59:23.074Z,96020.1
